Petersburg, Michigan
Current Conditions -  °F | °C
As of 10:34 PM on Wednesday 22 Oct 2014 (Local Time) from KDUH Reporting Station
Clear Clear  
Wind Chill: 45°   Ceiling: Unl
Heat Index: 45°   Visibility: 10mi
Dew Point: 39°   Wind: 0mph
Humidity: 81%   Direction: NA
Pressure: 30.28"   Gusts: NA
Location:  41.9°N, 83.71°W
Report Text: KDUH 230234Z AUTO 00000KT 10SM CLR 07/04 A3028 RMK AO2
Loading
Personal Weather Stations






























Interactive Weather Map
Tropical Storm Tracking
New forecast layout! Learn more

10-Day Weather Forecast

Advertisements
Track Severe Weather on mobile